createdAt,value
2018-09-09T00:00:11.554Z,15.00
2018-09-09T00:02:40.799Z,15.00
2018-09-09T00:05:10.017Z,14.80
2018-09-09T00:07:38.859Z,14.70
2018-09-09T00:10:10.234Z,14.70
2018-09-09T00:12:39.532Z,14.70
2018-09-09T00:15:09.256Z,14.90
2018-09-09T00:17:38.273Z,14.70
2018-09-09T00:20:07.140Z,14.70
2018-09-09T00:22:35.910Z,14.60
2018-09-09T00:25:06.948Z,14.60
2018-09-09T00:27:37.113Z,14.50
2018-09-09T00:30:06.616Z,14.50
2018-09-09T00:32:35.701Z,14.60
2018-09-09T00:35:04.879Z,14.70
2018-09-09T00:37:33.725Z,14.70
2018-09-09T00:40:02.537Z,14.70
2018-09-09T00:42:31.664Z,14.80
2018-09-09T00:45:04.443Z,14.70
2018-09-09T00:47:34.788Z,14.60
2018-09-09T00:50:09.526Z,14.60
2018-09-09T00:52:44.245Z,14.60
2018-09-09T00:55:13.281Z,14.60
2018-09-09T00:57:44.225Z,14.60
2018-09-09T01:00:13.457Z,14.60
2018-09-09T01:02:42.278Z,14.60
2018-09-09T01:05:11.261Z,14.60
2018-09-09T01:07:41.088Z,14.60
2018-09-09T01:10:10.199Z,14.60
2018-09-09T01:12:39.428Z,14.60
2018-09-09T01:15:08.288Z,14.60
2018-09-09T01:17:37.489Z,14.70
2018-09-09T01:20:06.313Z,14.60
2018-09-09T01:22:35.227Z,14.60
2018-09-09T01:25:05.016Z,14.60
2018-09-09T01:27:34.245Z,14.60
2018-09-09T01:30:03.626Z,14.60
2018-09-09T01:32:32.882Z,14.70
2018-09-09T01:35:04.233Z,14.60
2018-09-09T01:37:34.453Z,14.70
2018-09-09T01:40:03.253Z,14.70
2018-09-09T01:42:32.508Z,14.70
2018-09-09T01:45:01.330Z,14.70
2018-09-09T01:47:31.231Z,14.70
2018-09-09T01:50:00.117Z,14.60
2018-09-09T01:52:30.292Z,14.60
2018-09-09T01:55:00.073Z,14.60
2018-09-09T01:57:29.343Z,14.60
2018-09-09T01:59:58.707Z,14.60
2018-09-09T02:02:27.837Z,14.60
2018-09-09T02:04:56.638Z,14.60
2018-09-09T02:07:25.651Z,14.60
2018-09-09T02:09:55.284Z,14.60
2018-09-09T02:12:24.130Z,14.60
2018-09-09T02:14:52.934Z,14.60
2018-09-09T02:17:22.131Z,14.60
2018-09-09T02:19:52.964Z,14.60
2018-09-09T02:22:23.968Z,14.60
2018-09-09T02:24:56.220Z,14.60
2018-09-09T02:27:25.191Z,14.60
2018-09-09T02:29:54.395Z,14.60
2018-09-09T02:32:23.473Z,14.50
2018-09-09T02:34:52.571Z,14.40
2018-09-09T02:37:22.045Z,14.40
2018-09-09T02:39:53.687Z,14.50
2018-09-09T02:42:22.863Z,14.50
2018-09-09T02:44:52.132Z,14.50
2018-09-09T02:47:20.917Z,14.50
2018-09-09T02:49:49.873Z,14.50
2018-09-09T02:52:19.636Z,14.60
2018-09-09T02:54:51.600Z,14.60
2018-09-09T02:57:20.995Z,14.60
2018-09-09T02:59:50.143Z,14.60
2018-09-09T03:02:19.467Z,14.60
2018-09-09T03:04:48.729Z,14.60
2018-09-09T03:07:17.794Z,14.60
2018-09-09T03:09:46.618Z,14.60
2018-09-09T03:12:16.007Z,14.60
2018-09-09T03:14:45.348Z,14.60
2018-09-09T03:17:14.764Z,14.50
2018-09-09T03:19:44.303Z,14.60
2018-09-09T03:22:14.091Z,14.60
2018-09-09T03:24:43.458Z,14.60
2018-09-09T03:27:15.856Z,14.60
2018-09-09T03:29:47.147Z,14.60
2018-09-09T03:32:19.014Z,14.60
2018-09-09T03:34:48.173Z,14.60
2018-09-09T03:37:17.329Z,14.50
2018-09-09T03:39:46.475Z,14.60
2018-09-09T03:42:15.675Z,14.50
2018-09-09T03:44:47.071Z,14.50
2018-09-09T03:47:18.275Z,14.60
2018-09-09T03:49:48.336Z,14.40
2018-09-09T03:52:17.355Z,14.30
2018-09-09T03:54:46.124Z,14.20
2018-09-09T03:57:15.638Z,14.10
2018-09-09T03:59:44.445Z,14.00
2018-09-09T04:02:15.400Z,13.90
2018-09-09T04:04:44.180Z,13.90
2018-09-09T04:07:13.059Z,13.80
2018-09-09T04:09:41.838Z,13.90
2018-09-09T04:12:11.007Z,13.80
2018-09-09T04:14:40.069Z,13.90
2018-09-09T04:17:09.946Z,14.10
2018-09-09T04:19:39.342Z,14.30
2018-09-09T04:22:08.267Z,14.30
2018-09-09T04:24:37.205Z,14.40
2018-09-09T04:27:06.567Z,14.40
2018-09-09T04:29:36.220Z,14.40
2018-09-09T04:32:05.224Z,14.50
2018-09-09T04:34:34.019Z,14.50
2018-09-09T04:37:03.739Z,14.50
2018-09-09T04:39:32.829Z,14.50
2018-09-09T04:42:01.728Z,14.50
2018-09-09T04:44:34.442Z,14.50
2018-09-09T04:47:04.833Z,14.50
2018-09-09T04:49:34.505Z,14.50
2018-09-09T04:52:03.804Z,14.50
2018-09-09T04:54:33.408Z,14.50
2018-09-09T04:57:02.460Z,14.50
2018-09-09T04:59:31.548Z,14.50
2018-09-09T05:02:01.815Z,14.50
2018-09-09T05:04:31.223Z,14.50
2018-09-09T05:07:00.342Z,14.50
2018-09-09T05:09:29.401Z,14.50
2018-09-09T05:11:58.203Z,14.50
2018-09-09T05:14:31.241Z,14.50
2018-09-09T05:17:02.303Z,14.50
2018-09-09T05:19:32.256Z,14.50
2018-09-09T05:22:01.291Z,14.50
2018-09-09T05:24:30.296Z,14.50
2018-09-09T05:26:59.412Z,14.50
2018-09-09T05:29:28.519Z,14.60
2018-09-09T05:31:58.850Z,14.60
2018-09-09T05:34:28.071Z,14.60
2018-09-09T05:36:57.397Z,14.60
2018-09-09T05:39:27.172Z,14.60
2018-09-09T05:41:56.137Z,14.60
2018-09-09T05:44:24.974Z,14.50
2018-09-09T05:46:56.147Z,14.50
2018-09-09T05:49:25.740Z,14.50
2018-09-09T05:51:55.146Z,14.60
2018-09-09T05:54:24.117Z,14.50
2018-09-09T05:56:53.333Z,14.60
2018-09-09T05:59:22.127Z,14.60
2018-09-09T06:01:51.049Z,14.60
2018-09-09T06:04:21.526Z,14.70
2018-09-09T06:06:53.167Z,14.70
2018-09-09T06:09:24.451Z,14.70
2018-09-09T06:11:53.411Z,14.70
2018-09-09T06:14:22.452Z,14.70
2018-09-09T06:16:51.696Z,14.80
2018-09-09T06:19:20.839Z,14.80
2018-09-09T06:21:50.112Z,14.80
2018-09-09T06:24:20.184Z,14.80
2018-09-09T06:26:50.281Z,14.90
2018-09-09T06:29:19.588Z,14.90
2018-09-09T06:31:48.772Z,14.90
2018-09-09T06:34:17.970Z,14.80
2018-09-09T06:36:46.859Z,14.80
2018-09-09T06:39:17.238Z,14.80
2018-09-09T06:41:47.951Z,14.80
2018-09-09T06:44:16.977Z,14.80
2018-09-09T06:46:46.279Z,14.90
2018-09-09T06:49:15.456Z,14.90
2018-09-09T06:51:45.341Z,15.00
2018-09-09T06:54:14.585Z,15.10
2018-09-09T06:56:45.614Z,15.10
2018-09-09T06:59:14.961Z,15.30
2018-09-09T07:01:43.916Z,15.40
2018-09-09T07:04:13.115Z,15.50
2018-09-09T07:06:43.806Z,15.60
2018-09-09T07:09:13.074Z,15.70
2018-09-09T07:11:42.756Z,16.00
2018-09-09T07:14:12.081Z,16.20
2018-09-09T07:16:40.846Z,16.40
2018-09-09T07:19:09.723Z,16.50
2018-09-09T07:21:39.417Z,16.60
2018-09-09T07:24:09.059Z,16.50
2018-09-09T07:26:37.843Z,16.50
2018-09-09T07:29:06.759Z,16.50
2018-09-09T07:31:35.540Z,16.50
2018-09-09T07:34:05.431Z,16.60
2018-09-09T07:36:37.074Z,16.60
2018-09-09T07:39:06.852Z,16.70
2018-09-09T07:41:36.259Z,16.70
2018-09-09T07:44:05.688Z,16.80
2018-09-09T07:46:34.590Z,16.80
2018-09-09T07:49:03.439Z,16.80
2018-09-09T07:51:34.258Z,16.80
2018-09-09T07:54:04.789Z,16.80
2018-09-09T07:56:33.737Z,16.80
2018-09-09T07:59:02.582Z,16.90
2018-09-09T08:01:31.501Z,16.90
2018-09-09T08:04:00.392Z,16.90
2018-09-09T08:06:29.529Z,16.90
2018-09-09T08:09:00.908Z,17.00
2018-09-09T08:11:35.489Z,17.00
2018-09-09T08:14:05.102Z,17.10
2018-09-09T08:16:34.752Z,17.10
2018-09-09T08:19:03.748Z,17.20
2018-09-09T08:21:33.606Z,17.20
2018-09-09T08:24:03.602Z,17.30
2018-09-09T08:26:32.782Z,17.30
2018-09-09T08:29:05.870Z,17.40
2018-09-09T08:31:34.678Z,17.60
2018-09-09T08:34:03.516Z,17.50
2018-09-09T08:36:32.555Z,17.50
2018-09-09T08:39:01.908Z,17.50
2018-09-09T08:41:30.892Z,17.60
2018-09-09T08:44:00.769Z,17.70
2018-09-09T08:46:29.680Z,17.80
2018-09-09T08:48:58.836Z,17.70
2018-09-09T08:51:27.786Z,17.80
2018-09-09T08:53:57.015Z,17.90
2018-09-09T08:56:26.654Z,18.00
2018-09-09T08:58:56.069Z,18.10
2018-09-09T09:01:25.584Z,18.20
2018-09-09T09:03:54.887Z,18.20
2018-09-09T09:06:23.789Z,18.20
2018-09-09T09:08:52.891Z,18.30
2018-09-09T09:11:23.044Z,18.30
2018-09-09T09:13:54.872Z,18.30
2018-09-09T09:16:25.546Z,18.30
2018-09-09T09:18:56.379Z,18.40
2018-09-09T09:21:25.272Z,18.40
2018-09-09T09:23:54.198Z,18.50
2018-09-09T09:26:23.082Z,18.60
2018-09-09T09:28:52.579Z,18.80
2018-09-09T09:31:22.125Z,18.80
2018-09-09T09:33:52.553Z,18.70
2018-09-09T09:36:21.769Z,18.80
2018-09-09T09:38:51.205Z,18.90
2018-09-09T09:41:20.357Z,19.00
2018-09-09T09:43:51.077Z,19.00
2018-09-09T09:46:19.932Z,19.10
2018-09-09T09:48:49.847Z,19.20
2018-09-09T09:51:18.952Z,19.20
2018-09-09T09:53:48.108Z,19.10
2018-09-09T09:56:16.930Z,19.00
2018-09-09T09:58:46.390Z,18.90
2018-09-09T10:01:15.164Z,18.70
2018-09-09T10:03:45.541Z,18.70
2018-09-09T10:06:14.469Z,18.70
2018-09-09T10:08:43.720Z,18.70
2018-09-09T10:11:12.533Z,18.60
2018-09-09T10:13:41.407Z,18.60
2018-09-09T10:16:10.571Z,18.60
2018-09-09T10:18:43.053Z,18.60
2018-09-09T10:21:14.282Z,18.60
2018-09-09T10:23:44.316Z,18.60
2018-09-09T10:26:13.192Z,18.60
2018-09-09T10:28:42.156Z,18.80
2018-09-09T10:31:11.425Z,18.80
2018-09-09T10:33:40.369Z,18.90
2018-09-09T10:36:09.668Z,19.00
2018-09-09T10:38:38.735Z,19.20
2018-09-09T10:41:07.819Z,19.20
2018-09-09T10:43:36.679Z,19.10
2018-09-09T10:46:05.534Z,19.00
2018-09-09T10:48:35.840Z,18.90
2018-09-09T10:51:06.723Z,18.90
2018-09-09T10:53:36.106Z,19.10
2018-09-09T10:56:05.168Z,19.20
2018-09-09T10:58:34.228Z,19.30
2018-09-09T11:01:03.442Z,19.40
2018-09-09T11:03:32.705Z,19.60
2018-09-09T11:06:02.962Z,19.80
2018-09-09T11:08:35.517Z,19.80
2018-09-09T11:11:07.599Z,19.80
2018-09-09T11:13:36.961Z,19.80
2018-09-09T11:16:06.192Z,19.80
2018-09-09T11:18:35.355Z,20.10
2018-09-09T11:21:04.153Z,20.30
2018-09-09T11:23:33.432Z,20.30
2018-09-09T11:26:02.570Z,20.50
2018-09-09T11:28:31.902Z,20.60
2018-09-09T11:31:00.719Z,20.60
2018-09-09T11:33:29.541Z,20.90
2018-09-09T11:35:59.215Z,20.80
2018-09-09T11:38:31.214Z,20.80
2018-09-09T11:41:02.705Z,20.70
2018-09-09T11:43:32.039Z,20.60
2018-09-09T11:46:00.898Z,20.50
2018-09-09T11:48:30.204Z,20.20
2018-09-09T11:51:00.121Z,20.20
2018-09-09T11:53:28.935Z,20.30
2018-09-09T11:55:59.215Z,20.30
2018-09-09T11:58:28.288Z,20.40
2018-09-09T12:01:00.734Z,20.50
2018-09-09T12:03:29.810Z,20.80
2018-09-09T12:05:58.851Z,21.10
2018-09-09T12:08:27.779Z,21.40
2018-09-09T12:10:58.036Z,21.50
2018-09-09T12:13:27.792Z,21.80
2018-09-09T12:15:57.073Z,21.90
2018-09-09T12:18:26.263Z,21.80
2018-09-09T12:20:55.142Z,21.50
2018-09-09T12:23:25.250Z,21.30
2018-09-09T12:25:57.921Z,21.20
2018-09-09T12:28:27.141Z,21.10
2018-09-09T12:30:56.312Z,21.10
2018-09-09T12:33:26.165Z,21.20
2018-09-09T12:35:55.317Z,21.30
2018-09-09T12:38:24.145Z,21.40
2018-09-09T12:40:54.230Z,21.50
2018-09-09T12:43:29.885Z,21.90
2018-09-09T12:46:04.968Z,22.10
2018-09-09T12:48:40.864Z,21.80
2018-09-09T12:51:11.844Z,21.80
2018-09-09T12:53:44.457Z,21.50
2018-09-09T12:56:15.093Z,21.60
2018-09-09T12:58:44.205Z,21.70
2018-09-09T13:01:13.146Z,21.80
2018-09-09T13:03:42.302Z,21.90
2018-09-09T13:06:11.452Z,21.90
2018-09-09T13:08:40.487Z,21.90
2018-09-09T13:11:10.113Z,22.00
2018-09-09T13:13:40.875Z,22.20
2018-09-09T13:16:09.679Z,22.40
2018-09-09T13:18:38.612Z,22.40
2018-09-09T13:21:07.562Z,22.30
2018-09-09T13:23:36.439Z,22.40
2018-09-09T13:26:06.525Z,22.30
2018-09-09T13:28:36.138Z,22.30
2018-09-09T13:31:06.243Z,22.40
2018-09-09T13:33:36.165Z,22.30
2018-09-09T13:36:05.309Z,22.30
2018-09-09T13:38:34.572Z,22.30
2018-09-09T13:41:04.885Z,22.10
2018-09-09T13:43:35.566Z,22.00
2018-09-09T13:46:06.668Z,22.00
2018-09-09T13:48:36.122Z,22.30
2018-09-09T13:51:05.443Z,22.50
2018-09-09T13:53:35.037Z,22.50
2018-09-09T13:56:04.125Z,22.30
2018-09-09T13:58:34.040Z,22.40
2018-09-09T14:01:03.165Z,22.30
2018-09-09T14:03:33.098Z,22.20
2018-09-09T14:06:02.233Z,22.20
2018-09-09T14:08:31.583Z,22.00
2018-09-09T14:11:00.797Z,22.00
2018-09-09T14:13:30.042Z,22.10
2018-09-09T14:15:59.000Z,22.50
2018-09-09T14:18:29.445Z,22.70
2018-09-09T14:20:59.529Z,22.70
2018-09-09T14:23:28.997Z,22.50
2018-09-09T14:25:58.114Z,22.20
2018-09-09T14:28:27.231Z,22.10
2018-09-09T14:30:56.130Z,22.00
2018-09-09T14:33:25.642Z,22.10
2018-09-09T14:35:55.108Z,22.20
2018-09-09T14:38:23.968Z,22.40
2018-09-09T14:40:52.855Z,22.40
2018-09-09T14:43:21.845Z,22.30
2018-09-09T14:45:53.100Z,22.20
2018-09-09T14:48:22.670Z,22.40
2018-09-09T14:50:51.964Z,22.70
2018-09-09T14:53:22.683Z,22.70
2018-09-09T14:55:51.863Z,22.70
2018-09-09T14:58:21.109Z,22.80
2018-09-09T15:00:50.094Z,22.90
2018-09-09T15:03:20.627Z,22.70
2018-09-09T15:05:51.283Z,22.60
2018-09-09T15:08:20.411Z,22.70
2018-09-09T15:10:51.459Z,22.80
2018-09-09T15:13:20.650Z,22.60
2018-09-09T15:15:49.540Z,22.40
2018-09-09T15:18:18.702Z,22.30
2018-09-09T15:20:47.847Z,22.20
2018-09-09T15:23:17.245Z,22.30
2018-09-09T15:25:48.370Z,22.60
2018-09-09T15:28:19.257Z,22.50
2018-09-09T15:30:48.593Z,22.40
2018-09-09T15:33:17.819Z,22.40
2018-09-09T15:35:46.877Z,22.30
2018-09-09T15:38:15.708Z,22.20
2018-09-09T15:40:44.887Z,22.10
2018-09-09T15:43:15.397Z,22.10
2018-09-09T15:45:45.116Z,22.10
2018-09-09T15:48:14.950Z,22.10
2018-09-09T15:50:44.124Z,22.10
2018-09-09T15:53:13.224Z,22.20
2018-09-09T15:55:42.631Z,22.30
2018-09-09T15:58:11.842Z,22.30
2018-09-09T16:00:41.093Z,22.10
2018-09-09T16:03:10.927Z,22.00
2018-09-09T16:05:40.053Z,21.90
2018-09-09T16:08:09.044Z,21.80
2018-09-09T16:10:38.370Z,21.90
2018-09-09T16:13:09.271Z,21.90
2018-09-09T16:15:38.141Z,21.80
2018-09-09T16:18:07.358Z,21.80
2018-09-09T16:20:36.430Z,21.90
2018-09-09T16:23:05.612Z,21.90
2018-09-09T16:25:34.538Z,21.90
2018-09-09T16:28:04.569Z,21.90
2018-09-09T16:30:35.007Z,21.80
2018-09-09T16:33:07.805Z,21.70
2018-09-09T16:35:38.413Z,21.60
2018-09-09T16:38:07.895Z,21.50
2018-09-09T16:40:36.891Z,21.30
2018-09-09T16:43:06.485Z,21.20
2018-09-09T16:45:36.083Z,21.30
2018-09-09T16:48:07.159Z,21.30
2018-09-09T16:50:39.629Z,21.20
2018-09-09T16:53:08.896Z,21.20
2018-09-09T16:55:38.176Z,21.10
2018-09-09T16:58:07.436Z,21.10
2018-09-09T17:00:36.815Z,21.10
2018-09-09T17:03:07.163Z,21.00
2018-09-09T17:05:40.098Z,21.10
2018-09-09T17:08:09.454Z,21.00
2018-09-09T17:10:38.686Z,20.90
2018-09-09T17:13:07.733Z,20.90
2018-09-09T17:15:37.138Z,20.90
2018-09-09T17:18:06.370Z,20.80
2018-09-09T17:20:35.440Z,20.90
2018-09-09T17:23:06.204Z,20.90
2018-09-09T17:25:35.728Z,20.90
2018-09-09T17:28:09.302Z,20.90
2018-09-09T17:30:38.139Z,20.80
2018-09-09T17:33:07.676Z,20.80
2018-09-09T17:35:37.731Z,20.70
2018-09-09T17:38:08.700Z,20.60
2018-09-09T17:40:39.558Z,20.60
2018-09-09T17:43:09.558Z,20.50
2018-09-09T17:45:38.984Z,20.40
2018-09-09T17:48:08.342Z,20.30
2018-09-09T17:50:37.470Z,20.20
2018-09-09T17:53:06.778Z,20.10
2018-09-09T17:55:36.056Z,20.20
2018-09-09T17:58:05.396Z,20.20
2018-09-09T18:00:34.608Z,20.10
2018-09-09T18:03:03.956Z,20.10
2018-09-09T18:05:32.739Z,20.10
2018-09-09T18:08:01.856Z,20.10
2018-09-09T18:10:31.673Z,20.00
2018-09-09T18:13:01.185Z,20.00
2018-09-09T18:15:30.471Z,20.00
2018-09-09T18:17:59.316Z,20.00
2018-09-09T18:20:28.667Z,19.90
2018-09-09T18:22:59.588Z,19.90
2018-09-09T18:25:29.851Z,19.90
2018-09-09T18:27:59.160Z,19.80
2018-09-09T18:30:29.007Z,19.80
2018-09-09T18:32:58.506Z,19.80
2018-09-09T18:35:27.940Z,19.80
2018-09-09T18:37:56.741Z,19.80
2018-09-09T18:40:26.886Z,19.70
2018-09-09T18:42:58.855Z,19.60
2018-09-09T18:45:27.703Z,19.60
2018-09-09T18:47:57.570Z,19.40
2018-09-09T18:50:26.726Z,19.30
2018-09-09T18:52:55.539Z,19.20
2018-09-09T18:55:25.033Z,18.90
2018-09-09T18:57:56.772Z,18.80
2018-09-09T19:00:27.263Z,18.60
2018-09-09T19:02:56.304Z,18.60
2018-09-09T19:05:25.112Z,18.80
2018-09-09T19:07:54.288Z,18.80
2018-09-09T19:10:23.260Z,18.90
2018-09-09T19:12:52.708Z,18.90
2018-09-09T19:15:22.285Z,18.90
2018-09-09T19:17:53.109Z,18.90
2018-09-09T19:20:22.565Z,18.80
2018-09-09T19:22:51.678Z,18.70
2018-09-09T19:25:20.805Z,18.70
2018-09-09T19:27:49.813Z,18.60
2018-09-09T19:30:19.969Z,18.60
2018-09-09T19:32:49.916Z,18.60
2018-09-09T19:35:18.739Z,18.60
2018-09-09T19:37:47.890Z,18.50
2018-09-09T19:40:16.786Z,18.50
2018-09-09T19:42:46.202Z,18.40
2018-09-09T19:45:17.026Z,18.40
2018-09-09T19:47:47.176Z,18.30
2018-09-09T19:50:16.054Z,18.30
2018-09-09T19:52:45.390Z,18.30
2018-09-09T19:55:15.022Z,18.20
2018-09-09T19:57:44.336Z,18.20
2018-09-09T20:00:13.562Z,18.10
2018-09-09T20:02:42.681Z,18.10
2018-09-09T20:05:14.623Z,18.00
2018-09-09T20:07:46.820Z,18.00
2018-09-09T20:10:17.155Z,18.00
2018-09-09T20:12:46.078Z,17.90
2018-09-09T20:15:15.559Z,17.90
2018-09-09T20:17:44.926Z,17.90
2018-09-09T20:20:13.899Z,17.90
2018-09-09T20:22:42.843Z,17.80
2018-09-09T20:25:13.086Z,17.80
2018-09-09T20:27:42.991Z,17.70
2018-09-09T20:30:12.056Z,17.70
2018-09-09T20:32:41.305Z,17.60
2018-09-09T20:35:10.490Z,17.50
2018-09-09T20:37:40.041Z,17.50
2018-09-09T20:40:11.080Z,17.40
2018-09-09T20:42:40.322Z,17.50
2018-09-09T20:45:09.858Z,17.50
2018-09-09T20:47:39.146Z,17.50
2018-09-09T20:50:08.155Z,17.40
2018-09-09T20:52:37.082Z,17.40
2018-09-09T20:55:06.939Z,17.30
2018-09-09T20:57:37.369Z,17.20
2018-09-09T21:00:08.038Z,17.20
2018-09-09T21:02:38.555Z,17.10
2018-09-09T21:05:07.891Z,17.10
2018-09-09T21:07:38.903Z,17.10
2018-09-09T21:10:08.448Z,17.10
2018-09-09T21:12:37.288Z,17.00
2018-09-09T21:15:07.398Z,17.00
2018-09-09T21:17:37.706Z,16.90
2018-09-09T21:20:07.352Z,16.90
2018-09-09T21:22:36.371Z,16.90
2018-09-09T21:25:05.671Z,16.80
2018-09-09T21:27:34.697Z,16.80
2018-09-09T21:30:04.418Z,16.80
2018-09-09T21:32:33.329Z,16.80
2018-09-09T21:35:03.160Z,16.60
2018-09-09T21:37:31.980Z,16.60
2018-09-09T21:40:01.102Z,16.50
2018-09-09T21:42:30.462Z,16.50
2018-09-09T21:44:59.700Z,16.50
2018-09-09T21:47:29.295Z,16.50
2018-09-09T21:50:01.365Z,16.40
2018-09-09T21:52:32.490Z,16.40
2018-09-09T21:55:01.986Z,16.40
2018-09-09T21:57:31.153Z,16.30
2018-09-09T22:00:00.423Z,16.00
2018-09-09T22:02:30.179Z,15.80
2018-09-09T22:04:59.028Z,15.50
2018-09-09T22:07:29.588Z,15.40
2018-09-09T22:10:01.536Z,15.30
2018-09-09T22:12:34.998Z,15.10
2018-09-09T22:15:05.336Z,15.10
2018-09-09T22:17:34.715Z,15.00
2018-09-09T22:20:04.370Z,15.00
2018-09-09T22:22:33.628Z,15.00
2018-09-09T22:25:02.709Z,15.00
2018-09-09T22:27:31.928Z,15.00
2018-09-09T22:30:02.367Z,15.00
2018-09-09T22:32:33.511Z,15.00
2018-09-09T22:35:06.039Z,14.90
2018-09-09T22:37:35.775Z,14.80
2018-09-09T22:40:05.235Z,14.70
2018-09-09T22:42:34.447Z,14.70
2018-09-09T22:45:03.244Z,14.70
2018-09-09T22:47:31.997Z,14.70
2018-09-09T22:50:03.410Z,14.60
2018-09-09T22:52:33.435Z,14.60
2018-09-09T22:55:02.821Z,14.50
2018-09-09T22:57:32.038Z,14.40
2018-09-09T23:00:01.262Z,14.30
2018-09-09T23:02:30.691Z,14.40
2018-09-09T23:04:59.589Z,14.40
2018-09-09T23:07:31.971Z,14.30
2018-09-09T23:10:02.245Z,14.20
2018-09-09T23:12:31.758Z,14.30
2018-09-09T23:15:01.225Z,14.30
2018-09-09T23:17:30.182Z,14.20
2018-09-09T23:19:59.748Z,14.20
2018-09-09T23:22:29.055Z,14.10
2018-09-09T23:24:58.416Z,14.10
2018-09-09T23:27:28.554Z,14.30
2018-09-09T23:29:57.867Z,14.30
2018-09-09T23:32:27.404Z,14.50
2018-09-09T23:34:56.232Z,14.40
2018-09-09T23:37:27.207Z,14.40
2018-09-09T23:39:57.503Z,14.30
2018-09-09T23:42:27.211Z,14.20
2018-09-09T23:44:56.491Z,14.30
2018-09-09T23:47:25.303Z,14.30
2018-09-09T23:49:55.096Z,14.10
2018-09-09T23:52:24.438Z,13.90
2018-09-09T23:54:56.567Z,13.90
2018-09-09T23:57:25.828Z,13.80
2018-09-09T23:59:55.199Z,13.70
